Time;durP1;ratioP1;P1;durP2;ratioP2;P2;SDS_P1;SDS_P2;PMS_P1;PMS_P2;Temp;Humidity;BMP_temperature;BMP_pressure;BME280_temperature;BME280_humidity;BME280_pressure;Samples;Min_cycle;Max_cycle;Signal;HPM_P1;HPM_P2
2022/12/04 00:01:31;;;;;;;18.75;13.43;;;;;;;3.37;100.00;100775.28;4900422;29;20553;-91
2022/12/04 00:04:01;;;;;;;19.63;13.05;;;;;;;3.41;100.00;100778.56;4893849;29;20035;-91
2022/12/04 00:06:32;;;;;;;19.02;12.25;;;;;;;3.40;100.00;100772.50;4881024;29;20036;-91
2022/12/04 00:09:02;;;;;;;19.35;11.73;;;;;;;3.43;100.00;100766.25;4909374;29;20214;-92
2022/12/04 00:11:32;;;;;;;19.90;12.70;;;;;;;3.43;100.00;100761.00;4883414;29;20097;-92
2022/12/04 00:14:00;;;;;;;21.52;12.93;;;;;;;3.42;100.00;100768.03;4884590;29;20035;-91
2022/12/04 00:16:29;;;;;;;18.23;11.85;;;;;;;3.40;100.00;100762.03;4930596;29;20035;-91
2022/12/04 00:18:58;;;;;;;19.55;12.30;;;;;;;3.28;100.00;100758.34;4885105;29;20477;-91
2022/12/04 00:21:28;;;;;;;18.55;12.25;;;;;;;3.21;100.00;100763.13;4905278;29;20051;-91
2022/12/04 00:23:58;;;;;;;22.25;14.15;;;;;;;3.19;100.00;100764.13;4910731;29;20106;-92
2022/12/04 00:26:29;;;;;;;24.92;14.13;;;;;;;3.18;100.00;100749.38;4913340;29;20153;-92
2022/12/04 00:28:57;;;;;;;17.77;12.27;;;;;;;3.14;100.00;100750.50;4903408;29;20031;-91
2022/12/04 00:31:28;;;;;;;19.05;11.93;;;;;;;3.15;100.00;100750.41;4914803;29;20040;-92
2022/12/04 00:33:56;;;;;;;20.23;11.73;;;;;;;3.12;100.00;100747.13;4884454;29;20063;-92
2022/12/04 00:36:28;;;;;;;17.77;10.50;;;;;;;3.09;100.00;100748.16;4902833;29;20051;-92
2022/12/04 00:39:00;;;;;;;16.48;10.77;;;;;;;3.07;100.00;100744.78;4898396;29;20051;-92
2022/12/04 00:41:32;;;;;;;24.38;11.10;;;;;;;3.05;100.00;100739.66;4900565;29;20410;-92
2022/12/04 00:44:03;;;;;;;16.55;11.43;;;;;;;3.06;100.00;100735.25;4899801;29;20040;-92
2022/12/04 00:46:32;;;;;;;20.33;11.45;;;;;;;3.05;100.00;100736.19;4899764;29;20051;-92
2022/12/04 00:49:01;;;;;;;15.93;10.82;;;;;;;3.01;100.00;100735.50;4904362;29;20046;-92
2022/12/04 00:51:29;;;;;;;20.33;12.25;;;;;;;2.96;100.00;100741.00;4932031;29;20164;-93
2022/12/04 00:53:57;;;;;;;15.77;10.68;;;;;;;2.96;100.00;100740.19;4877782;29;20040;-92
2022/12/04 00:56:28;;;;;;;22.95;11.65;;;;;;;2.91;100.00;100739.59;4886743;29;20090;-92
2022/12/04 00:59:03;;;;;;;15.63;9.88;;;;;;;2.80;100.00;100730.56;4915770;29;20048;-91
2022/12/04 01:01:33;;;;;;;14.75;10.27;;;;;;;2.78;100.00;100740.28;4883198;29;20078;-92
2022/12/04 01:04:02;;;;;;;17.38;10.07;;;;;;;2.71;100.00;100729.34;4883679;29;20512;-92
2022/12/04 01:06:33;;;;;;;16.65;10.27;;;;;;;2.62;100.00;100713.34;4915724;29;20071;-92
2022/12/04 01:09:03;;;;;;;20.95;10.80;;;;;;;2.56;100.00;100717.16;4911660;29;20064;-92
2022/12/04 01:11:34;;;;;;;16.95;10.35;;;;;;;2.53;100.00;100719.94;4918719;29;20045;-92
2022/12/04 01:14:03;;;;;;;19.70;10.43;;;;;;;2.49;100.00;100714.03;4916469;29;20059;-92
2022/12/04 01:16:38;;;;;;;18.67;10.88;;;;;;;2.48;100.00;100721.00;4889098;29;20032;-92
2022/12/04 01:19:10;;;;;;;16.27;9.93;;;;;;;2.42;100.00;100723.13;4895849;29;20038;-91
2022/12/04 01:21:40;;;;;;;14.35;9.82;;;;;;;2.34;100.00;100711.34;4910111;29;20128;-91
2022/12/04 01:24:09;;;;;;;16.63;9.48;;;;;;;2.35;100.00;100720.00;4886410;29;20517;-91
2022/12/04 01:26:37;;;;;;;16.23;9.50;;;;;;;2.32;100.00;100721.03;4882026;29;20058;-92
2022/12/04 01:29:05;;;;;;;16.52;8.95;;;;;;;2.38;100.00;100716.38;4897601;29;20079;-91
2022/12/04 01:31:33;;;;;;;15.13;8.75;;;;;;;2.38;100.00;100722.44;4894912;29;20040;-92
2022/12/04 01:34:02;;;;;;;17.25;9.93;;;;;;;2.42;100.00;100720.53;4884927;29;20114;-91
2022/12/04 01:36:29;;;;;;;14.73;9.95;;;;;;;2.41;100.00;100717.06;4915862;29;20040;-92
2022/12/04 01:38:57;;;;;;;14.90;10.13;;;;;;;2.43;100.00;100725.66;4899506;29;20170;-91
2022/12/04 01:41:28;;;;;;;19.02;10.93;;;;;;;2.43;100.00;100720.44;4914388;29;20124;-90
2022/12/04 01:44:19;;;;;;;22.83;9.13;;;;;;;2.44;100.00;100721.25;4900144;29;20036;-89
2022/12/04 01:46:58;;;;;;;20.67;10.40;;;;;;;2.41;100.00;100727.50;4898684;29;20485;-91
2022/12/04 01:49:54;;;;;;;17.00;10.38;;;;;;;2.40;100.00;100728.44;4900259;29;20824;-91
2022/12/04 01:52:25;;;;;;;16.52;9.98;;;;;;;2.37;100.00;100723.38;4829607;29;20491;-91
2022/12/04 01:55:00;;;;;;;16.98;9.45;;;;;;;2.36;100.00;100719.06;4882432;29;20091;-91
2022/12/04 01:57:31;;;;;;;17.73;10.63;;;;;;;2.37;100.00;100726.00;4894817;29;20433;-91
2022/12/04 02:00:09;;;;;;;18.73;11.07;;;;;;;2.33;100.00;100722.72;4903610;29;20039;-92
2022/12/04 02:02:42;;;;;;;18.30;10.52;;;;;;;2.32;100.00;100725.41;4885178;29;20047;-91
2022/12/04 02:05:16;;;;;;;15.02;10.40;;;;;;;2.27;100.00;100730.88;4920940;29;20797;-91
2022/12/04 02:07:49;;;;;;;14.85;9.82;;;;;;;2.25;100.00;100724.03;4882620;29;20044;-91
2022/12/04 02:10:23;;;;;;;15.52;10.10;;;;;;;2.22;100.00;100728.50;4882649;29;20039;-92
2022/12/04 02:13:04;;;;;;;16.92;10.18;;;;;;;2.16;100.00;100718.41;4886223;29;20493;-90
2022/12/04 02:15:37;;;;;;;14.45;10.23;;;;;;;2.14;100.00;100709.81;4907166;29;20036;-91
2022/12/04 02:18:20;;;;;;;17.60;9.73;;;;;;;2.12;100.00;100711.66;4881976;29;20482;-91
2022/12/04 02:20:58;;;;;;;18.40;9.23;;;;;;;2.06;100.00;100717.22;4868909;29;20139;-91
2022/12/04 02:23:28;;;;;;;14.13;8.40;;;;;;;2.00;100.00;100707.09;4917999;29;20040;-91
2022/12/04 02:26:22;;;;;;;16.95;10.15;;;;;;;2.04;100.00;100719.06;4899977;29;20032;-91
2022/12/04 02:29:00;;;;;;;18.17;9.43;;;;;;;2.09;100.00;100709.22;4902282;29;20059;-91
2022/12/04 02:31:54;;;;;;;15.80;10.65;;;;;;;2.16;100.00;100712.34;4914277;29;20036;-91
2022/12/04 02:35:03;;;;;;;17.52;8.68;;;;;;;2.23;100.00;100709.31;4916302;29;20236;-92
2022/12/04 02:37:38;;;;;;;14.38;9.13;;;;;;;2.30;100.00;100711.59;4899531;29;20044;-91
2022/12/04 02:40:50;;;;;;;14.07;9.82;;;;;;;2.29;100.00;100710.78;4912010;29;20044;-91
2022/12/04 02:43:26;;;;;;;17.80;9.50;;;;;;;2.29;100.00;100708.16;4912200;29;20044;-91
2022/12/04 02:46:22;;;;;;;16.45;10.02;;;;;;;2.27;100.00;100706.53;4914609;29;20095;-91
2022/12/04 02:48:55;;;;;;;19.13;10.77;;;;;;;2.26;100.00;100704.88;4912772;29;20127;-91
2022/12/04 02:51:31;;;;;;;19.35;10.85;;;;;;;2.28;100.00;100706.47;4917269;29;20484;-91
2022/12/04 02:54:09;;;;;;;16.58;11.77;;;;;;;2.29;100.00;100699.47;4881924;29;20046;-91
2022/12/04 02:56:44;;;;;;;18.58;11.25;;;;;;;2.28;100.00;100701.25;4901344;29;20127;-91
2022/12/04 02:59:22;;;;;;;21.58;12.15;;;;;;;2.25;100.00;100698.81;4890427;29;20052;-91
2022/12/04 03:01:57;;;;;;;18.83;11.40;;;;;;;2.19;100.00;100705.19;4885706;29;20536;-91
2022/12/04 03:04:31;;;;;;;22.67;10.88;;;;;;;2.16;100.00;100696.69;4899544;29;20544;-91
2022/12/04 03:07:04;;;;;;;18.13;10.70;;;;;;;2.15;100.00;100695.84;4869522;29;20056;-92
2022/12/04 03:09:56;;;;;;;17.67;10.93;;;;;;;2.23;100.00;100704.09;4887610;29;20036;-91
2022/12/04 03:12:40;;;;;;;15.30;9.70;;;;;;;2.29;100.00;100702.94;4925641;29;20039;-91
2022/12/04 03:15:33;;;;;;;20.65;10.70;;;;;;;2.32;100.00;100708.00;4902432;29;20126;-91
2022/12/04 03:18:11;;;;;;;17.90;10.65;;;;;;;2.32;100.00;100708.00;4901974;29;20111;-92
2022/12/04 03:20:43;;;;;;;12.25;8.25;;;;;;;2.32;100.00;100704.53;4912318;29;20048;-91
2022/12/04 03:23:18;;;;;;;12.85;8.57;;;;;;;2.30;100.00;100707.22;4905943;29;20509;-92
2022/12/04 03:26:01;;;;;;;15.55;8.32;;;;;;;2.33;100.00;100706.19;4884765;29;20544;-91
2022/12/04 03:28:40;;;;;;;13.80;7.55;;;;;;;2.31;100.00;100695.84;4906831;29;20091;-91
2022/12/04 03:31:11;;;;;;;16.73;9.48;;;;;;;2.30;100.00;100702.00;4882006;29;20040;-91
2022/12/04 03:33:45;;;;;;;13.48;7.85;;;;;;;2.31;100.00;100693.25;4901447;29;20040;-91
2022/12/04 03:36:36;;;;;;;15.75;8.32;;;;;;;2.32;100.00;100691.50;4903458;29;20050;-92
2022/12/04 03:39:18;;;;;;;11.85;7.68;;;;;;;2.25;100.00;100696.19;4932433;29;20044;-92
2022/12/04 03:41:58;;;;;;;11.35;7.50;;;;;;;2.22;100.00;100694.59;4897878;29;20067;-91
2022/12/04 03:44:38;;;;;;;13.75;8.35;;;;;;;2.23;100.00;100691.06;4909022;29;20037;-92
2022/12/04 03:47:18;;;;;;;15.30;8.15;;;;;;;2.29;100.00;100697.72;4894364;29;20362;-92
2022/12/04 03:50:02;;;;;;;13.05;7.40;;;;;;;2.34;100.00;100693.06;4897726;29;20382;-91
2022/12/04 03:52:51;;;;;;;13.48;7.80;;;;;;;2.34;100.00;100697.47;4903786;29;20664;-91
2022/12/04 03:55:29;;;;;;;9.75;7.72;;;;;;;2.38;100.00;100693.75;4903517;29;20036;-92
2022/12/04 03:58:00;;;;;;;13.07;7.40;;;;;;;2.41;100.00;100696.19;4909968;29;20362;-91
2022/12/04 04:00:32;;;;;;;11.77;7.88;;;;;;;2.45;100.00;100686.44;4921486;29;20040;-91
2022/12/04 04:03:18;;;;;;;16.50;8.38;;;;;;;2.45;100.00;100686.44;4930073;29;20039;-91
2022/12/04 04:05:52;;;;;;;13.15;8.25;;;;;;;2.45;100.00;100686.44;4895314;29;20049;-91
2022/12/04 04:08:26;;;;;;;16.13;8.90;;;;;;;2.38;100.00;100690.28;4926410;29;20044;-91
2022/12/04 04:11:20;;;;;;;13.38;7.65;;;;;;;2.32;100.00;100692.34;4897705;29;20035;-91
2022/12/04 04:25:29;;;;;;;9.95;6.72;;;;;;;2.29;100.00;100689.06;4903074;29;20036;-92
2022/12/04 04:27:58;;;;;;;12.07;7.00;;;;;;;2.24;100.00;100684.09;4912678;29;20036;-92
2022/12/04 04:30:32;;;;;;;11.82;6.60;;;;;;;2.22;100.00;100685.94;4887171;29;20049;-92
2022/12/04 04:33:08;;;;;;;11.55;6.57;;;;;;;2.18;100.00;100680.03;4883418;29;20047;-91
2022/12/04 04:36:03;;;;;;;15.88;6.28;;;;;;;2.15;100.00;100682.81;4889253;29;20381;-92
2022/12/04 04:38:45;;;;;;;12.60;6.28;;;;;;;2.19;100.00;100692.16;4914785;29;20048;-92
2022/12/04 04:41:38;;;;;;;10.00;5.95;;;;;;;2.21;100.00;100686.88;4886146;29;20175;-92
2022/12/04 04:44:19;;;;;;;12.93;6.20;;;;;;;2.23;100.00;100691.06;4891378;29;20577;-92
2022/12/04 04:46:53;;;;;;;12.05;6.25;;;;;;;2.23;100.00;100690.22;4883828;29;20050;-91
2022/12/04 04:49:28;;;;;;;11.80;6.57;;;;;;;2.21;100.00;100703.34;4916169;29;20043;-92
2022/12/04 04:51:58;;;;;;;9.73;6.47;;;;;;;2.15;100.00;100701.06;4901417;29;20039;-91
2022/12/04 04:54:30;;;;;;;13.02;5.95;;;;;;;2.06;100.00;100691.97;4905917;29;20139;-91
2022/12/04 04:57:00;;;;;;;10.25;6.10;;;;;;;1.98;100.00;100697.63;4916951;29;20064;-91
2022/12/04 04:59:28;;;;;;;13.80;5.90;;;;;;;1.90;100.00;100704.13;4888489;29;20511;-91
2022/12/04 05:01:58;;;;;;;14.43;6.38;;;;;;;1.90;100.00;100691.97;4924970;29;20036;-92
2022/12/04 05:04:26;;;;;;;15.02;7.10;;;;;;;1.89;100.00;100699.88;4899700;29;20043;-92
2022/12/04 05:06:54;;;;;;;17.73;7.47;;;;;;;1.90;100.00;100699.78;4930559;29;20040;-91
2022/12/04 05:09:25;;;;;;;21.38;8.27;;;;;;;1.86;100.00;100706.91;4893432;29;20436;-91
2022/12/04 05:11:55;;;;;;;32.72;9.25;;;;;;;1.88;100.00;100700.78;4917787;29;20031;-91
2022/12/04 05:14:37;;;;;;;64.55;9.30;;;;;;;1.80;100.00;100706.41;4913498;29;20108;-91
2022/12/04 05:17:18;;;;;;;68.35;9.55;;;;;;;1.81;100.00;100708.09;4897815;29;20066;-91
2022/12/04 05:19:54;;;;;;;47.78;9.57;;;;;;;1.80;100.00;100715.06;4907526;29;20050;-91
2022/12/04 05:22:39;;;;;;;104.28;9.93;;;;;;;1.88;100.00;100719.88;4893057;29;20431;-91
2022/12/04 05:25:14;;;;;;;69.78;10.57;;;;;;;1.85;100.00;100702.63;4914261;29;20111;-91
2022/12/04 05:28:06;;;;;;;18.90;9.50;;;;;;;1.84;100.00;100719.22;4899621;29;20138;-91
2022/12/04 05:31:05;;;;;;;16.95;9.68;;;;;;;1.79;100.00;100702.09;4921076;29;20036;-92
2022/12/04 05:37:39;;;;;;;17.90;8.43;;;;;;;2.04;100.00;100716.47;4928163;29;20104;-91
2022/12/04 05:40:14;;;;;;;12.68;7.18;;;;;;;2.04;100.00;100719.06;4908867;29;20037;-92
2022/12/04 05:42:49;;;;;;;15.65;7.15;;;;;;;2.04;100.00;100712.06;4890827;29;20638;-91
2022/12/04 05:45:19;;;;;;;11.27;6.18;;;;;;;2.01;100.00;100712.25;4894132;29;20044;-91
2022/12/04 05:47:48;;;;;;;14.75;6.47;;;;;;;2.03;100.00;100715.63;4900174;29;20044;-91
2022/12/04 05:50:19;;;;;;;13.65;5.53;;;;;;;2.03;100.00;100709.56;4884574;29;20127;-91
2022/12/04 05:52:47;;;;;;;11.20;5.90;;;;;;;2.06;100.00;100722.41;4859265;29;20044;-90
2022/12/04 05:55:15;;;;;;;6.15;4.35;;;;;;;2.06;100.00;100715.44;4906013;29;20032;-91
2022/12/04 05:57:45;;;;;;;8.43;4.45;;;;;;;2.12;100.00;100709.06;4912629;29;20122;-91
2022/12/04 06:00:14;;;;;;;7.03;3.60;;;;;;;2.10;100.00;100710.91;4896303;29;20104;-90
2022/12/04 06:02:41;;;;;;;9.32;3.55;;;;;;;2.10;100.00;100716.13;4897224;29;20044;-91
2022/12/04 06:05:09;;;;;;;6.95;4.25;;;;;;;2.08;100.00;100716.22;4879933;29;20075;-90
2022/12/04 06:07:37;;;;;;;7.00;3.78;;;;;;;2.12;100.00;100710.84;4894963;29;20040;-91
2022/12/04 06:10:06;;;;;;;7.30;3.70;;;;;;;2.10;100.00;100719.56;4887089;29;20507;-91
2022/12/04 06:12:34;;;;;;;8.15;3.67;;;;;;;2.09;100.00;100711.81;4899603;29;20040;-91
2022/12/04 06:15:03;;;;;;;7.35;3.72;;;;;;;2.08;100.00;100715.38;4893831;29;20032;-91
2022/12/04 06:17:32;;;;;;;9.77;3.65;;;;;;;2.09;100.00;100717.88;4904391;29;20521;-91
2022/12/04 06:20:04;;;;;;;12.98;3.40;;;;;;;2.06;100.00;100718.06;4885035;29;20626;-91
2022/12/04 06:22:32;;;;;;;9.77;3.88;;;;;;;2.05;100.00;100703.34;4870906;29;20044;-92
2022/12/04 06:25:00;;;;;;;6.43;3.53;;;;;;;2.06;100.00;100710.22;4903932;29;20039;-91
2022/12/04 06:27:28;;;;;;;12.68;4.07;;;;;;;2.13;100.00;100713.38;4871839;29;20118;-91
2022/12/04 06:29:56;;;;;;;7.55;3.72;;;;;;;2.14;100.00;100715.03;4920541;29;20052;-92
2022/12/04 06:32:24;;;;;;;6.35;3.83;;;;;;;2.17;100.00;100725.31;4927338;29;20036;-91
2022/12/04 06:34:54;;;;;;;7.13;3.83;;;;;;;2.09;100.00;100720.50;4919187;29;20033;-91
2022/12/04 06:37:23;;;;;;;7.20;3.70;;;;;;;2.07;100.00;100721.53;4923369;29;20047;-91
2022/12/04 06:39:52;;;;;;;8.60;4.13;;;;;;;2.05;100.00;100715.53;4893239;29;20111;-91
2022/12/04 06:42:21;;;;;;;9.05;4.25;;;;;;;2.09;100.00;100714.44;4904831;29;20048;-91
2022/12/04 06:44:50;;;;;;;9.88;3.97;;;;;;;2.16;100.00;100717.56;4904935;29;20122;-91
2022/12/04 06:47:18;;;;;;;6.28;3.75;;;;;;;2.18;100.00;100719.16;4917285;29;20492;-91
2022/12/04 06:49:51;;;;;;;5.40;3.95;;;;;;;2.22;100.00;100722.44;4905213;29;20044;-91
2022/12/04 06:52:20;;;;;;;5.70;3.63;;;;;;;2.22;100.00;100717.22;4888545;29;20036;-91
2022/12/04 06:54:49;;;;;;;7.93;3.72;;;;;;;2.16;100.00;100714.94;4903877;29;20036;-92
2022/12/04 06:57:17;;;;;;;5.57;3.50;;;;;;;2.12;100.00;100716.88;4889070;29;20043;-91
2022/12/04 06:59:47;;;;;;;10.25;4.13;;;;;;;2.13;100.00;100717.72;4892252;29;20036;-91
2022/12/04 07:02:32;;;;;;;9.93;4.75;;;;;;;2.09;100.00;100709.22;4919229;29;20041;-91
2022/12/04 07:05:14;;;;;;;4.63;3.65;;;;;;;2.11;100.00;100715.19;4883046;29;20378;-92
2022/12/04 07:08:04;;;;;;;7.88;3.63;;;;;;;2.10;100.00;100706.53;4912428;29;20155;-91
2022/12/04 07:10:55;;;;;;;7.40;3.47;;;;;;;2.10;100.00;100705.72;4883896;29;20043;-91
2022/12/04 07:13:28;;;;;;;7.07;3.90;;;;;;;2.20;100.00;100692.97;4893785;29;20083;-91
2022/12/04 07:16:19;;;;;;;9.73;3.42;;;;;;;2.26;100.00;100710.94;4918976;29;20980;-91
2022/12/04 07:19:17;;;;;;;7.20;3.03;;;;;;;2.17;100.00;100720.09;4885415;29;20056;-91
2022/12/04 07:22:00;;;;;;;6.78;3.88;;;;;;;2.06;100.00;100717.22;4879990;29;20174;-92
2022/12/04 07:24:52;;;;;;;12.20;4.00;;;;;;;2.04;100.00;100717.28;4887518;29;20039;-92
2022/12/04 07:27:35;;;;;;;5.88;2.97;;;;;;;2.04;100.00;100711.25;4886437;29;20048;-91
2022/12/04 07:30:16;;;;;;;5.95;2.78;;;;;;;2.00;100.00;100710.56;4886102;29;20032;-91
2022/12/04 07:32:50;;;;;;;7.20;3.50;;;;;;;2.07;100.00;100727.56;4890632;29;20043;-92
2022/12/04 07:35:26;;;;;;;5.85;3.50;;;;;;;2.04;100.00;100722.50;4884479;29;20064;-91
2022/12/04 07:38:18;;;;;;;5.70;3.45;;;;;;;2.09;100.00;100723.09;4885983;29;20036;-91
2022/12/04 07:40:46;;;;;;;4.68;2.70;;;;;;;2.10;100.00;100743.03;4893060;29;20577;-91
2022/12/04 07:43:14;;;;;;;5.78;3.28;;;;;;;2.12;100.00;100734.31;4905670;29;20056;-91
2022/12/04 07:45:44;;;;;;;6.97;3.72;;;;;;;2.12;100.00;100729.91;4910724;29;20159;-91
2022/12/04 07:48:21;;;;;;;7.68;3.80;;;;;;;2.18;100.00;100733.97;4896576;29;20044;-91
2022/12/04 07:50:49;;;;;;;9.63;3.83;;;;;;;2.15;100.00;100727.13;4899195;29;20040;-91
2022/12/04 07:53:21;;;;;;;5.10;3.33;;;;;;;2.15;100.00;100736.75;4895436;29;20375;-91
2022/12/04 07:55:52;;;;;;;7.35;3.15;;;;;;;2.16;100.00;100730.59;4918408;29;20087;-91
2022/12/04 07:58:22;;;;;;;7.60;3.45;;;;;;;2.14;100.00;100730.69;4915816;29;20047;-92
2022/12/04 08:01:23;;;;;;;6.10;3.30;;;;;;;2.17;100.00;100734.88;4884444;29;20095;-91
2022/12/04 08:03:58;;;;;;;6.75;3.13;;;;;;;2.15;100.00;100734.97;4884090;29;20450;-91
2022/12/04 08:06:30;;;;;;;10.32;3.28;;;;;;;2.16;100.00;100741.88;4898111;29;20055;-91
2022/12/04 08:09:02;;;;;;;6.93;3.63;;;;;;;2.14;100.00;100741.13;4909710;29;20036;-92
2022/12/04 08:11:33;;;;;;;6.20;2.55;;;;;;;2.15;100.00;100732.34;4904807;29;20083;-92
2022/12/04 08:14:07;;;;;;;8.15;2.63;;;;;;;2.18;100.00;100745.22;4913963;29;20493;-91
2022/12/04 08:16:40;;;;;;;5.50;3.03;;;;;;;2.16;100.00;100736.66;4898735;29;20040;-91
2022/12/04 08:19:09;;;;;;;2.83;2.35;;;;;;;2.14;100.00;100754.16;4899492;29;20130;-90
2022/12/04 08:21:37;;;;;;;3.47;2.28;;;;;;;2.13;100.00;100759.44;4894168;29;20415;-91
2022/12/04 08:24:05;;;;;;;7.95;3.05;;;;;;;2.14;100.00;100764.59;4867112;29;20032;-91
2022/12/04 08:26:35;;;;;;;5.85;2.72;;;;;;;2.12;100.00;100766.41;4918123;29;20043;-91
2022/12/04 08:29:04;;;;;;;6.53;2.60;;;;;;;2.17;100.00;100771.41;4895261;29;20586;-92
2022/12/04 08:31:34;;;;;;;5.18;2.63;;;;;;;2.18;100.00;100766.09;4880257;29;20104;-92
2022/12/04 08:34:06;;;;;;;4.65;2.70;;;;;;;2.19;100.00;100770.41;4902884;29;20149;-92
2022/12/04 08:36:36;;;;;;;5.82;2.72;;;;;;;2.18;100.00;100770.50;4922170;29;20119;-92
2022/12/04 08:39:06;;;;;;;6.93;2.83;;;;;;;2.31;100.00;100784.53;4913171;29;20118;-92
2022/12/04 08:41:35;;;;;;;4.80;2.30;;;;;;;2.36;100.00;100776.47;4895206;29;20039;-92
2022/12/04 08:44:03;;;;;;;5.57;2.50;;;;;;;2.32;100.00;100781.03;4884104;29;20541;-92
2022/12/04 08:46:31;;;;;;;5.07;2.47;;;;;;;2.35;100.00;100775.66;4881862;29;20078;-92
2022/12/04 08:48:59;;;;;;;5.82;2.75;;;;;;;2.40;100.00;100775.41;4879365;29;20493;-92
2022/12/04 08:51:30;;;;;;;6.97;2.70;;;;;;;2.46;100.00;100784.66;4899230;29;20036;-92
2022/12/04 08:54:00;;;;;;;5.93;2.90;;;;;;;2.48;100.00;100782.81;4904952;29;20031;-92
2022/12/04 08:56:31;;;;;;;6.82;3.10;;;;;;;2.51;100.00;100792.22;4913810;29;20131;-92
2022/12/04 08:59:02;;;;;;;4.22;2.63;;;;;;;2.52;100.00;100793.91;4882923;29;20040;-92
2022/12/04 09:01:31;;;;;;;5.15;2.70;;;;;;;2.51;100.00;100792.22;4863385;29;20043;-92
2022/12/04 09:04:01;;;;;;;4.45;2.33;;;;;;;2.48;100.00;100798.47;4881479;29;20123;-92
2022/12/04 09:06:30;;;;;;;6.07;2.22;;;;;;;2.44;100.00;100794.31;4913155;29;20043;-93
2022/12/04 09:08:58;;;;;;;3.10;1.67;;;;;;;2.40;100.00;100788.44;4912658;29;20130;-91
2022/12/04 09:11:29;;;;;;;3.50;1.88;;;;;;;2.45;100.00;100790.81;4883120;29;20470;-91
2022/12/04 09:13:56;;;;;;;2.40;1.70;;;;;;;2.45;100.00;100793.41;4879532;29;20036;-92
2022/12/04 09:16:24;;;;;;;3.97;1.70;;;;;;;2.49;100.00;100784.47;4884475;29;20040;-91
2022/12/04 09:18:53;;;;;;;5.60;1.92;;;;;;;2.54;100.00;100787.69;4900290;29;20048;-91
2022/12/04 09:21:24;;;;;;;4.25;1.70;;;;;;;2.58;100.00;100785.75;4887720;29;20064;-91
2022/12/04 09:23:54;;;;;;;2.28;1.77;;;;;;;2.63;100.00;100794.16;4901361;29;20039;-91
2022/12/04 09:26:28;;;;;;;5.28;2.70;;;;;;;2.70;100.00;100790.31;4875015;29;20048;-91
2022/12/04 09:28:59;;;;;;;4.10;1.67;;;;;;;2.75;100.00;100790.06;4885163;29;20036;-91
2022/12/04 09:31:30;;;;;;;3.90;1.73;;;;;;;2.80;100.00;100792.41;4881335;29;20438;-91
2022/12/04 09:34:01;;;;;;;4.45;1.88;;;;;;;2.92;100.00;100803.94;4900663;29;20040;-90
2022/12/04 09:36:30;;;;;;;2.72;1.63;;;;;;;3.01;100.00;100803.41;4887039;29;20863;-91
2022/12/04 09:39:00;;;;;;;5.03;1.75;;;;;;;3.08;100.00;100796.94;4885947;29;20545;-89
2022/12/04 09:41:35;;;;;;;4.00;1.67;;;;;;;3.19;100.00;100796.31;4881954;29;20497;-90
2022/12/04 09:44:05;;;;;;;2.53;1.67;;;;;;;3.24;100.00;100798.66;4882835;29;20040;-91
2022/12/04 09:46:46;;;;;;;2.40;1.38;;;;;;;3.29;100.00;100799.25;4887856;29;20139;-91
2022/12/04 09:49:29;;;;;;;4.70;1.60;;;;;;;3.37;100.00;100793.56;4911216;29;20040;-91
2022/12/04 09:52:01;;;;;;;3.95;1.65;;;;;;;3.40;100.00;100793.41;4916395;29;20040;-91
2022/12/04 09:54:37;;;;;;;6.00;1.80;;;;;;;3.40;100.00;100796.00;4898580;29;20389;-91
2022/12/04 09:57:25;;;;;;;5.15;1.58;;;;;;;3.45;100.00;100795.75;4894016;29;20465;-91
2022/12/04 09:59:56;;;;;;;5.97;1.98;;;;;;;3.51;100.00;100798.00;4927531;29;20032;-91
2022/12/04 10:02:37;;;;;;;3.97;1.23;;;;;;;3.56;100.00;100806.41;4893489;29;20044;-91
2022/12/04 10:05:17;;;;;;;3.92;1.42;;;;;;;3.59;100.00;100808.00;4911765;29;20051;-91
2022/12/04 10:08:14;;;;;;;3.05;1.30;;;;;;;3.58;100.00;100809.75;4892126;29;20039;-91
2022/12/04 10:10:54;;;;;;;4.22;1.10;;;;;;;3.64;100.00;100815.56;4900059;29;20054;-90
2022/12/04 10:13:58;;;;;;;5.57;1.40;;;;;;;3.69;100.00;100816.16;4897835;29;20047;-90
2022/12/04 10:16:38;;;;;;;3.00;1.67;;;;;;;3.76;100.00;100814.84;4923061;29;20423;-90
2022/12/04 10:19:34;;;;;;;6.32;1.52;;;;;;;3.79;100.00;100812.06;4891127;29;20219;-90
2022/12/04 10:22:21;;;;;;;5.22;1.55;;;;;;;3.85;100.00;100819.53;4887691;29;20052;-91
2022/12/04 10:25:14;;;;;;;7.40;1.27;;;;;;;3.91;100.00;100820.97;4905154;29;20495;-90
2022/12/04 10:28:11;;;;;;;2.38;1.20;;;;;;;3.94;100.00;100819.91;4913193;29;20052;-91
2022/12/04 10:30:43;;;;;;;1.90;1.30;;;;;;;3.97;100.00;100819.75;4895639;29;20142;-91
2022/12/04 10:33:33;;;;;;;4.78;0.90;;;;;;;4.02;100.00;100809.84;4916340;29;20043;-90
2022/12/04 10:36:04;;;;;;;4.90;1.30;;;;;;;4.04;100.00;100818.44;4893658;29;20040;-90
2022/12/04 10:38:42;;;;;;;3.60;1.27;;;;;;;4.07;100.00;100815.66;4909746;29;20114;-92
2022/12/04 10:41:21;;;;;;;2.58;1.42;;;;;;;4.07;100.00;100823.50;4916038;29;20039;-92
2022/12/04 10:43:51;;;;;;;2.75;1.40;;;;;;;4.08;100.00;100830.41;4884474;29;20679;-91
2022/12/04 10:46:24;;;;;;;3.28;1.30;;;;;;;4.11;100.00;100813.66;4912787;29;20044;-91
2022/12/04 10:49:12;;;;;;;3.10;1.42;;;;;;;4.13;100.00;100819.66;4900394;29;20127;-90
2022/12/04 10:51:42;;;;;;;2.80;1.25;;;;;;;4.12;100.00;100820.59;4913673;29;20032;-90
2022/12/04 10:54:25;;;;;;;5.85;2.30;;;;;;;4.18;100.00;100822.84;4881632;29;20044;-90
2022/12/04 10:56:57;;;;;;;6.20;1.60;;;;;;;4.25;100.00;100828.56;4900051;29;20039;-91
2022/12/04 10:59:29;;;;;;;5.97;1.55;;;;;;;4.20;100.00;100823.56;4882101;29;20040;-91
2022/12/04 11:02:12;;;;;;;3.60;1.60;;;;;;;4.21;100.00;100824.44;4889327;29;20036;-90
2022/12/04 11:04:42;;;;;;;5.38;1.35;;;;;;;4.18;100.00;100808.91;4910554;29;20453;-90
2022/12/04 11:07:29;;;;;;;2.13;0.90;;;;;;;4.18;100.00;100804.53;4883062;29;20063;-91
2022/12/04 11:09:57;;;;;;;4.53;1.55;;;;;;;4.20;100.00;100810.50;4888994;29;20040;-91
2022/12/04 11:12:25;;;;;;;3.85;1.55;;;;;;;4.31;100.00;100804.63;4884170;29;20031;-90
2022/12/04 11:15:06;;;;;;;1.92;1.40;;;;;;;4.40;100.00;100802.34;4879486;29;20071;-90
2022/12/04 11:17:34;;;;;;;3.33;1.40;;;;;;;4.45;100.00;100806.38;4909550;29;20044;-91
2022/12/04 11:20:08;;;;;;;5.97;1.00;;;;;;;4.55;100.00;100797.94;4898607;29;20508;-90
2022/12/04 11:22:55;;;;;;;4.32;1.10;;;;;;;4.64;100.00;100802.59;4921622;29;20370;-91
2022/12/04 11:25:26;;;;;;;2.42;1.23;;;;;;;4.66;100.00;100799.88;4893431;29;20035;-91
2022/12/04 11:27:58;;;;;;;3.50;1.67;;;;;;;4.74;100.00;100796.78;4882690;29;20036;-89
2022/12/04 11:30:31;;;;;;;3.40;1.40;;;;;;;4.82;100.00;100795.38;4881500;29;20028;-91
2022/12/04 11:33:02;;;;;;;5.53;1.33;;;;;;;4.88;100.00;100795.91;4882226;29;20055;-91
2022/12/04 11:35:31;;;;;;;3.13;1.42;;;;;;;4.89;100.00;100806.28;4889507;29;20036;-90
2022/12/04 11:38:12;;;;;;;4.00;1.60;;;;;;;5.00;100.00;100797.72;4925400;29;20043;-91
2022/12/04 11:40:51;;;;;;;5.18;1.40;;;;;;;5.05;100.00;100798.28;4896049;29;20178;-92
2022/12/04 11:43:24;;;;;;;2.90;1.40;;;;;;;4.92;100.00;100802.63;4929165;29;20047;-92
2022/12/04 11:45:57;;;;;;;2.42;1.25;;;;;;;5.07;100.00;100800.78;4913419;29;20481;-92
2022/12/04 11:48:26;;;;;;;3.70;1.15;;;;;;;5.08;100.00;100798.06;4866909;29;20047;-92
2022/12/04 11:51:12;;;;;;;4.38;2.03;;;;;;;5.13;100.00;100797.78;4896112;29;20500;-93
2022/12/04 11:53:49;;;;;;;5.88;2.25;;;;;;;5.13;100.00;100787.28;4898748;29;20120;-91
2022/12/04 11:56:28;;;;;;;6.80;2.00;;;;;;;5.15;100.00;100788.03;4894023;29;20047;-92
2022/12/04 11:59:19;;;;;;;2.38;1.38;;;;;;;5.13;100.00;100795.16;4896211;29;20067;-91
2022/12/04 12:02:25;;;;;;;2.20;0.90;;;;;;;5.06;100.00;100776.41;4899730;29;20122;-92
2022/12/04 12:05:17;;;;;;;3.65;0.82;;;;;;;5.08;100.00;100784.16;4915278;29;20044;-91
2022/12/04 12:08:10;;;;;;;4.78;1.00;;;;;;;5.09;100.00;100785.81;4915993;29;20440;-92
2022/12/04 12:10:45;;;;;;;4.15;1.08;;;;;;;5.14;100.00;100780.28;4933365;29;20044;-92
2022/12/04 12:13:31;;;;;;;4.50;1.50;;;;;;;5.24;100.00;100777.91;4884072;29;20048;-92